Needham, Massachusetts
Current Conditions -  °F | °C
As of 3:03 PM on Thursday 23 Oct 2014 (Local Time) from KOWD Reporting Station
Light Rain Light Rain  
Wind Chill: 55°   Ceiling: 900
Heat Index: 55°   Visibility: 2.5mi
Dew Point: 53°   Wind: 13mph
Humidity: 93%   Direction: 10°N
Pressure: 29.58"   Gusts: 21mph
Location:  42.28°N, 71.24°W
Report Text: KOWD 231903Z 01011G18KT 2 1/2SM -RA BR OVC009 13/12 A2958 RMK AO2 CIG 007V014 P0001 T01280117
Loading
Personal Weather Stations






























Interactive Weather Map
Tropical Storm Tracking
New forecast layout! Learn more

10-Day Weather Forecast

Advertisements
Track Severe Weather on mobile